• Join FlightAware (Why Join?)
  • Login
  • US Flag 
09:55PM EST


 

Airport Tracker/Info


-or-


 

Live Flight TrackerFlight Track Log ✈ JBU56 ✈ 17-Apr-2014 ✈ KIAD - KBOS

Flight Track Log - Related Links

Times and Time Zones

All times are in EDT time to prevent confusion due to time zone crossing. See the JBU56 flight status page for this flight to view local times or setup timezone preferences in your user account.

Time Position Orientation Groundspeed Altitude Reporting Facility
EDT Latitude Longitude Course Direction KTS MPH feet Rate Location/Type
08:35AM 38.9667 -77.5333 90° East 197 227 2,400  Level Potomac TRACON
08:35AM 39.0333 -77.5333 360° North 243 280 4,700 2,975 Climbing Potomac TRACON
08:37AM 39.0070 -77.0782 77° East  Level FlightAware Approximate
08:37AM 39.1000 -77.5000 21° North 286 329 8,400  Level Potomac TRACON
08:37AM 39.1500 -77.4167 52° Northeast 311 358 10,100 1,526 Climbing Potomac TRACON
08:38AM 39.0308 -76.9475 77° East  Level FlightAware Approximate
08:38AM 39.1500 -77.3000 90° East 353 406 11,300  Level Potomac TRACON
08:39AM 39.0529 -76.8163 78° East  Level FlightAware Approximate
08:40AM 39.0667 -76.6839 90° East  Level FlightAware Approximate
08:40AM 39.1175 -77.1967 112° Southeast 369 425 13,500  Level Washington Center
08:41AM 39.0839 -77.0544 107° East 387 445 16,400 2,459 Climbing Washington Center
08:42AM 39.0792 -76.9178 93° East 387 445 18,500 1,916 Climbing Washington Center
08:43AM 39.0994 -76.7711 80° East 387 445 20,200 1,831 Climbing Washington Center
08:44AM 39.1133 -76.6136 83° East 419 482 22,100 1,400 Climbing Washington Center
08:45AM 39.1292 -76.4506 83° East 442 509 23,000 446 Climbing Washington Center
08:46AM 39.1447 -76.2900 83° East 452 520 23,000 1,082 Level Washington Center
08:47AM 39.2269 -76.1356 55° Northeast 446 513 25,200 1,866 Climbing Washington Center
08:48AM 39.3067 -76.0019 52° Northeast 453 521 26,700 1,412 Climbing Washington Center
08:49AM 39.3883 -75.8656 52° Northeast 465 535 28,000 1,190 Climbing Washington Center
08:50AM 39.4739 -75.7261 51° Northeast 481 554 29,100 952 Climbing Washington Center
08:52AM 39.6611 -75.4200 51° Northeast 489 563 31,000 603 Climbing New York Center
08:53AM 39.7439 -75.2797 52° Northeast 489 563 31,000  Level New York Center
08:54AM 39.8264 -75.1336 54° Northeast 496 571 31,000  Level New York Center
08:55AM 39.9108 -74.9900 52° Northeast 496 571 31,000  Level New York Center
08:56AM 39.9903 -74.8647 50° Northeast 496 571 31,000  Level New York Center
08:57AM 40.0744 -74.7258 52° Northeast 496 571 31,000  Level New York Center
08:58AM 40.1622 -74.5869 50° Northeast 496 571 31,000  Level New York Center
08:59AM 40.2481 -74.4475 51° Northeast 496 571 31,000  Level New York Center
09:00AM 40.3358 -74.3053 51° Northeast 496 571 31,000  Level New York Center
09:02AM 40.5469 -73.9631 51° Northeast 498 573 31,000  Level Boston Center
09:03AM 40.6336 -73.8200 51° Northeast 499 574 31,000 -148 Level Boston Center
09:04AM 40.7183 -73.6761 52° Northeast 499 574 30,700 -1,426 Descending Boston Center
09:05AM 40.8053 -73.5325 51° Northeast 500 575 28,100 -2,164 Descending Boston Center
09:06AM 40.8847 -73.3867 54° Northeast 492 566 26,300 -1,525 Descending Boston Center
09:07AM 40.9647 -73.2317 56° Northeast 476 548 25,000 -1,180 Descending Boston Center
09:08AM 41.0381 -73.0872 56° Northeast 476 548 23,900 -976 Descending Boston Center
09:09AM 41.1100 -72.9456 56° Northeast 468 539 23,000 -439 Descending Boston Center
09:10AM 41.1814 -72.8069 56° Northeast 461 531 23,000  Level Boston Center
09:11AM 41.2517 -72.6650 57° Northeast 461 531 23,000  Level Boston Center
09:12AM 41.3364 -72.4975 56° Northeast 461 531 23,000 -148 Level Boston Center
09:13AM 41.4069 -72.3533 57° Northeast 462 532 22,700 -984 Descending Boston Center
09:14AM 41.4767 -72.2122 57° Northeast 460 529 21,000 -1,869 Descending Boston Center
09:15AM 41.5361 -72.0558 63° Northeast 446 513 18,900 -1,672 Descending Boston Center
09:16AM 41.5831 -71.9092 67° East 431 496 17,600 -1,805 Descending Boston Center
09:17AM 41.6253 -71.7672 68° East 411 473 15,200 -2,000 Descending Boston Center
09:18AM 41.6650 -71.6303 69° East 401 461 13,500 -1,721 Descending Boston Center
09:19AM 41.7056 -71.4925 68° East 375 432 11,700 -1,230 Descending Boston Center
09:20AM 41.7481 -71.3889 61° Northeast 317 365 11,000 -344 Descending Boston Center
09:22AM 41.7958 -71.2964 55° Northeast 302 348 11,000 -341 Level Boston Center
09:23AM 41.8728 -71.2394 29° Northeast 300 345 10,300 -976 Descending Boston Center
09:24AM 41.9481 -71.2061 18° North 290 334 9,000 -1,426 Descending Boston Center
09:25AM 42.0206 -71.1717 19° North 279 321 7,400 -1,574 Descending Boston Center
09:26AM 42.0939 -71.1369 19° North 261 300 5,800 -1,377 Descending Boston Center
09:27AM 42.1456 -71.1117 20° North 199 229 4,600 -1,024 Descending Boston Center
09:28AM 42.1908 -71.0906 19° North 172 198 3,700 -878 Descending Boston Center
09:29AM 42.2294 -71.0719 20° North 151 174 2,800 -885 Descending Boston Center
09:30AM 42.2681 -71.0517 21° North 150 173 1,900 -787 Descending Boston Center
09:31AM 42.3019 -71.0353 20° North 122 140 1,200 -683 Descending Boston Center
09:32AM 42.3328 -71.0211 19° North 121 139 500 -439 Descending Boston Center
09:33AM 42.3417 -71.0167 20° North 111 128 300 -197 Descending Boston Center